Time;durP1;ratioP1;P1;durP2;ratioP2;P2;SDS_P1;SDS_P2;PMS_P1;PMS_P2;Temp;Humidity;BMP_temperature;BMP_pressure;BME280_temperature;BME280_humidity;BME280_pressure;Samples;Min_cycle;Max_cycle;Signal;HPM_P1;HPM_P2
2022/06/15 00:01:12;;;;;;;3.08;2.15;;;18.30;74.60;;;;;;5072424;28;20176;-69
2022/06/15 00:03:41;;;;;;;3.33;1.70;;;18.30;75.40;;;;;;5085518;28;20227;-69
2022/06/15 00:06:08;;;;;;;5.82;2.17;;;18.20;75.20;;;;;;5073069;28;20263;-68
2022/06/15 00:08:34;;;;;;;2.58;1.83;;;18.20;75.50;;;;;;5071141;28;20169;-68
2022/06/15 00:11:09;;;;;;;3.78;2.00;;;18.10;75.40;;;;;;5073431;28;20246;-68
2022/06/15 00:13:34;;;;;;;3.83;1.85;;;18.10;76.50;;;;;;5073334;28;20172;-69
2022/06/15 00:16:05;;;;;;;2.47;1.90;;;18.00;76.40;;;;;;5071866;28;20184;-69
2022/06/15 00:18:33;;;;;;;2.95;1.75;;;18.00;75.80;;;;;;5071926;28;20201;-69
2022/06/15 00:20:59;;;;;;;2.30;1.67;;;17.90;75.70;;;;;;5074059;28;20172;-69
2022/06/15 00:23:28;;;;;;;2.10;1.60;;;17.90;75.80;;;;;;5071780;28;20184;-68
2022/06/15 00:25:54;;;;;;;2.40;1.77;;;17.80;76.00;;;;;;5073041;28;20180;-68
2022/06/15 00:28:23;;;;;;;2.60;1.63;;;17.70;76.20;;;;;;5073151;28;20201;-68
2022/06/15 00:30:51;;;;;;;2.45;1.80;;;17.70;77.10;;;;;;5066371;28;20177;-69
2022/06/15 00:33:24;;;;;;;2.33;1.50;;;17.60;76.90;;;;;;5072701;28;20193;-69
2022/06/15 00:35:58;;;;;;;3.55;2.00;;;17.50;78.00;;;;;;5066916;28;20271;-69
2022/06/15 00:38:31;;;;;;;2.88;1.52;;;17.50;78.60;;;;;;5062372;28;20176;-69
2022/06/15 00:40:58;;;;;;;2.95;1.60;;;17.40;78.80;;;;;;5070726;28;20204;-69
2022/06/15 00:43:37;;;;;;;2.33;1.70;;;17.40;78.00;;;;;;5068420;28;20215;-68
2022/06/15 00:46:23;;;;;;;2.60;1.80;;;17.40;79.10;;;;;;5073481;28;20226;-67
2022/06/15 00:48:56;;;;;;;3.60;1.65;;;17.30;80.40;;;;;;5089608;28;20214;-69
2022/06/15 00:51:27;;;;;;;2.95;1.55;;;17.30;79.70;;;;;;5066566;28;20169;-69
2022/06/15 00:53:57;;;;;;;2.38;1.70;;;17.20;79.40;;;;;;5072574;28;20203;-69
2022/06/15 00:56:27;;;;;;;2.53;1.75;;;17.20;80.50;;;;;;5072803;28;20187;-69
2022/06/15 00:59:00;;;;;;;3.17;2.00;;;17.20;80.10;;;;;;5065391;28;20173;-69
2022/06/15 01:01:28;;;;;;;2.35;1.80;;;17.10;81.00;;;;;;5073034;28;20180;-69
2022/06/15 01:03:56;;;;;;;3.70;1.85;;;17.10;80.70;;;;;;5071766;28;20330;-69
2022/06/15 01:06:22;;;;;;;3.90;2.08;;;17.10;81.10;;;;;;5071095;28;20253;-68
2022/06/15 01:09:29;;;;;;;3.65;2.03;;;17.00;81.20;;;;;;5072867;28;20176;-69
2022/06/15 01:12:13;;;;;;;2.35;1.55;;;17.00;84.10;;;;;;5073802;28;20176;-68
2022/06/15 01:14:47;;;;;;;4.20;1.80;;;16.90;84.30;;;;;;5066702;28;20197;-70
2022/06/15 01:17:28;;;;;;;2.80;1.70;;;16.90;82.20;;;;;;5083073;28;20179;-69
2022/06/15 01:20:15;;;;;;;3.63;1.95;;;16.90;82.60;;;;;;5071475;28;20200;-69
2022/06/15 01:22:40;;;;;;;2.72;1.85;;;16.80;85.20;;;;;;5070512;28;20272;-69
2022/06/15 01:25:37;;;;;;;2.63;1.70;;;16.80;83.30;;;;;;5072894;28;20275;-69
2022/06/15 01:28:13;;;;;;;3.90;1.98;;;16.80;86.20;;;;;;5071966;28;20204;-68
2022/06/15 01:31:16;;;;;;;3.15;1.95;;;16.80;86.10;;;;;;5064315;28;20169;-69
2022/06/15 01:34:01;;;;;;;2.50;2.00;;;16.80;86.80;;;;;;5070993;28;20176;-69
2022/06/15 01:36:59;;;;;;;4.00;2.03;;;16.70;86.40;;;;;;5072800;28;20181;-69
2022/06/15 01:39:34;;;;;;;5.25;2.33;;;16.70;87.10;;;;;;5070387;28;20199;-69
2022/06/15 01:42:20;;;;;;;3.20;2.05;;;16.60;87.10;;;;;;5086016;28;20223;-69
2022/06/15 01:45:02;;;;;;;4.47;2.17;;;16.60;85.70;;;;;;5070206;28;20176;-69
2022/06/15 01:47:34;;;;;;;2.78;1.85;;;16.60;88.20;;;;;;5070747;28;20209;-69
2022/06/15 01:50:04;;;;;;;3.20;2.10;;;16.60;87.00;;;;;;5072088;28;20194;-69
2022/06/15 01:52:36;;;;;;;2.97;2.28;;;16.60;87.80;;;;;;5081373;28;20218;-67
2022/06/15 01:55:28;;;;;;;3.17;2.13;;;16.60;88.00;;;;;;5069945;28;20247;-69
2022/06/15 01:57:59;;;;;;;2.75;2.08;;;16.60;90.30;;;;;;5065614;28;20185;-68
2022/06/15 02:00:25;;;;;;;2.85;2.08;;;16.50;88.90;;;;;;5070900;28;20708;-69
2022/06/15 02:03:20;;;;;;;3.78;2.10;;;16.50;88.60;;;;;;5070484;28;20258;-69
2022/06/15 02:06:04;;;;;;;2.92;1.80;;;16.50;90.60;;;;;;5065526;28;20438;-68
2022/06/15 02:08:36;;;;;;;3.67;2.05;;;16.50;90.30;;;;;;5062972;28;20208;-68
2022/06/15 02:11:29;;;;;;;4.70;2.40;;;16.50;89.20;;;;;;5076233;28;20435;-68
2022/06/15 02:14:06;;;;;;;2.85;1.90;;;16.40;90.40;;;;;;5074558;28;20260;-69
2022/06/15 02:16:37;;;;;;;3.63;2.08;;;16.40;90.60;;;;;;5068987;28;20196;-69
2022/06/15 02:19:08;;;;;;;7.47;2.78;;;16.40;90.60;;;;;;5071908;28;20192;-69
2022/06/15 02:21:37;;;;;;;4.65;2.63;;;16.30;91.00;;;;;;5066529;28;20199;-69
2022/06/15 02:24:05;;;;;;;4.28;2.17;;;16.30;91.00;;;;;;5075418;28;20289;-69
2022/06/15 02:26:37;;;;;;;4.15;2.35;;;16.30;91.00;;;;;;5074817;28;20196;-68
2022/06/15 02:29:09;;;;;;;3.88;2.25;;;16.30;91.70;;;;;;5072606;28;20174;-69
2022/06/15 02:31:36;;;;;;;3.92;2.30;;;16.20;91.60;;;;;;5074981;28;20173;-68
2022/06/15 02:34:07;;;;;;;3.03;2.20;;;16.20;91.50;;;;;;5074451;28;20397;-69
2022/06/15 02:36:33;;;;;;;2.92;2.13;;;16.20;91.70;;;;;;5074879;28;20241;-69
2022/06/15 02:39:01;;;;;;;3.28;2.25;;;16.10;91.80;;;;;;5066529;28;20190;-68
2022/06/15 02:41:29;;;;;;;3.97;2.45;;;16.10;92.40;;;;;;5072787;28;20192;-68
2022/06/15 02:43:58;;;;;;;3.67;2.38;;;16.10;92.30;;;;;;5066731;28;20419;-68
2022/06/15 02:46:26;;;;;;;2.70;2.28;;;16.00;93.00;;;;;;5070378;28;20181;-68
2022/06/15 02:48:58;;;;;;;2.90;2.20;;;16.00;92.90;;;;;;5075238;28;20222;-69
2022/06/15 02:51:42;;;;;;;3.92;2.72;;;15.90;93.60;;;;;;5071873;28;20204;-69
2022/06/15 02:54:16;;;;;;;3.78;2.42;;;15.80;95.10;;;;;;5062518;28;20173;-69
2022/06/15 02:56:42;;;;;;;2.50;2.20;;;15.80;94.10;;;;;;5072804;28;20173;-69
2022/06/15 02:59:08;;;;;;;3.78;2.55;;;15.70;94.00;;;;;;5074945;28;20227;-69
2022/06/15 03:01:35;;;;;;;3.40;2.30;;;15.60;94.40;;;;;;5065029;28;20201;-67
2022/06/15 03:04:01;;;;;;;4.30;2.38;;;15.60;94.60;;;;;;5074794;28;20250;-69
2022/06/15 03:06:29;;;;;;;4.13;2.35;;;15.50;94.50;;;;;;5072447;28;20181;-68
2022/06/15 03:08:57;;;;;;;4.32;2.50;;;15.50;94.80;;;;;;5065278;28;20184;-68
2022/06/15 03:11:28;;;;;;;3.05;2.20;;;15.40;95.00;;;;;;5071786;28;20177;-69
2022/06/15 03:13:56;;;;;;;2.72;2.20;;;15.40;95.60;;;;;;5069674;28;20184;-69
2022/06/15 03:16:22;;;;;;;3.42;2.10;;;15.30;95.40;;;;;;5063455;28;20169;-69
2022/06/15 03:18:48;;;;;;;3.20;2.20;;;15.30;95.70;;;;;;5075196;28;20263;-68
2022/06/15 03:21:15;;;;;;;2.55;2.08;;;15.20;95.90;;;;;;5074680;28;20173;-69
2022/06/15 03:23:41;;;;;;;4.68;2.10;;;15.20;96.10;;;;;;5082388;28;20185;-69
2022/06/15 03:26:06;;;;;;;4.88;3.05;;;15.20;96.50;;;;;;5062096;28;20259;-69
2022/06/15 03:28:36;;;;;;;5.18;3.95;;;15.20;96.80;;;;;;5057721;28;20229;-69
2022/06/15 03:31:05;;;;;;;5.57;3.58;;;15.20;97.10;;;;;;5072373;28;20177;-69
2022/06/15 03:33:30;;;;;;;4.35;3.33;;;15.30;97.40;;;;;;5071226;28;20193;-69
2022/06/15 03:36:01;;;;;;;7.82;4.82;;;15.30;97.60;;;;;;5060110;28;20184;-69
2022/06/15 03:38:28;;;;;;;8.43;6.57;;;15.30;97.80;;;;;;5068021;28;20260;-69
2022/06/15 03:40:54;;;;;;;7.50;5.43;;;15.30;97.90;;;;;;5074193;28;20222;-69
2022/06/15 03:43:20;;;;;;;7.28;5.15;;;15.30;98.00;;;;;;5066593;28;20291;-68
2022/06/15 03:45:46;;;;;;;4.95;4.35;;;15.30;98.20;;;;;;5072520;28;20290;-69
2022/06/15 03:48:12;;;;;;;4.53;3.40;;;15.30;98.30;;;;;;5070692;28;20220;-70
2022/06/15 03:50:39;;;;;;;4.47;2.80;;;15.40;98.20;;;;;;5070837;28;20195;-70
2022/06/15 03:53:08;;;;;;;6.00;2.90;;;15.40;98.20;;;;;;5074017;28;20188;-68
2022/06/15 03:55:36;;;;;;;3.65;2.70;;;15.40;98.40;;;;;;5072075;28;20236;-69
2022/06/15 03:58:03;;;;;;;2.40;2.20;;;15.40;98.50;;;;;;5070881;28;20260;-69
2022/06/15 04:00:33;;;;;;;3.85;2.40;;;15.40;98.50;;;;;;5069602;28;20220;-69
2022/06/15 04:03:01;;;;;;;6.00;2.70;;;15.40;98.60;;;;;;5064636;28;20207;-69
2022/06/15 04:05:34;;;;;;;5.43;2.45;;;15.40;98.40;;;;;;5073981;28;20180;-69
2022/06/15 04:10:44;;;;;;;2.75;2.15;;;15.40;98.50;;;;;;5073130;28;20205;-69
2022/06/15 04:13:10;;;;;;;3.33;2.17;;;15.50;98.60;;;;;;5073558;28;20176;-69
2022/06/15 04:15:36;;;;;;;5.43;2.47;;;15.50;98.70;;;;;;5072732;28;20210;-70
2022/06/15 04:18:02;;;;;;;4.47;2.50;;;15.50;98.70;;;;;;5067186;28;20185;-70
2022/06/15 04:20:34;;;;;;;5.85;2.45;;;15.50;98.80;;;;;;5071445;28;20232;-69
2022/06/15 04:23:10;;;;;;;4.22;2.50;;;15.50;98.90;;;;;;5066636;28;20173;-69
2022/06/15 04:25:42;;;;;;;4.78;2.38;;;15.50;99.50;;;;;;5072091;28;20195;-70
2022/06/15 04:28:13;;;;;;;2.67;2.17;;;15.50;99.10;;;;;;5071546;28;20245;-69
2022/06/15 04:30:41;;;;;;;3.92;2.50;;;15.50;99.40;;;;;;5072266;28;20176;-69
2022/06/15 04:33:09;;;;;;;3.58;2.80;;;15.50;99.30;;;;;;5068419;28;20434;-69
2022/06/15 04:35:38;;;;;;;5.85;2.78;;;15.60;99.00;;;;;;5072577;28;20411;-69
2022/06/15 04:38:06;;;;;;;3.92;2.65;;;15.60;99.30;;;;;;5072072;28;20177;-69
2022/06/15 04:40:33;;;;;;;4.43;2.60;;;15.60;99.10;;;;;;5072594;28;20224;-69
2022/06/15 04:43:02;;;;;;;3.60;2.67;;;15.60;99.20;;;;;;5078947;28;20188;-69
2022/06/15 04:45:27;;;;;;;3.58;2.60;;;15.70;99.30;;;;;;5073511;28;20211;-71
2022/06/15 04:47:55;;;;;;;5.28;2.70;;;15.70;99.30;;;;;;5071913;28;20236;-69
2022/06/15 04:50:23;;;;;;;3.80;2.70;;;15.70;99.40;;;;;;5073067;28;20176;-69
2022/06/15 04:52:49;;;;;;;3.35;2.53;;;15.70;99.50;;;;;;5070476;28;20183;-69
2022/06/15 04:55:20;;;;;;;4.05;2.65;;;15.80;99.60;;;;;;5074020;28;20200;-69
2022/06/15 04:57:47;;;;;;;3.58;2.33;;;15.80;99.90;;;;;;5072948;28;20180;-69
2022/06/15 05:00:16;;;;;;;4.10;2.47;;;15.90;99.80;;;;;;5062378;28;20217;-69
2022/06/15 05:02:45;;;;;;;4.18;2.83;;;15.90;99.90;;;;;;5057273;28;20170;-70
2022/06/15 05:05:15;;;;;;;3.72;2.38;;;15.90;99.90;;;;;;5063222;28;20199;-69
2022/06/15 05:07:41;;;;;;;3.28;2.60;;;16.00;99.90;;;;;;5071067;28;20193;-69
2022/06/15 05:10:12;;;;;;;4.80;2.60;;;16.00;99.90;;;;;;5057122;28;20176;-69
2022/06/15 05:12:38;;;;;;;3.95;2.92;;;16.10;99.90;;;;;;5065469;28;20255;-69
2022/06/15 05:15:06;;;;;;;3.60;2.70;;;16.10;99.90;;;;;;5069701;28;20173;-69
2022/06/15 05:17:34;;;;;;;6.00;2.80;;;16.10;99.90;;;;;;5069860;28;20181;-69
2022/06/15 05:19:59;;;;;;;4.43;2.72;;;16.20;99.90;;;;;;5057895;28;20177;-69
2022/06/15 05:22:27;;;;;;;4.68;2.92;;;16.30;99.90;;;;;;5060715;28;20187;-69
2022/06/15 05:24:55;;;;;;;3.67;2.72;;;16.30;99.90;;;;;;5073234;28;20451;-69
2022/06/15 05:27:23;;;;;;;5.63;2.78;;;16.40;99.90;;;;;;5074575;28;20239;-69
2022/06/15 05:29:50;;;;;;;4.43;3.33;;;16.40;99.90;;;;;;5072127;28;20584;-69
2022/06/15 05:32:16;;;;;;;4.07;3.03;;;16.50;99.90;;;;;;5065646;28;20200;-69
2022/06/15 05:34:44;;;;;;;4.53;3.00;;;16.50;99.90;;;;;;5073209;28;20174;-69
2022/06/15 05:37:12;;;;;;;5.80;3.05;;;16.50;99.90;;;;;;5063115;28;20220;-69
2022/06/15 05:39:40;;;;;;;5.65;3.50;;;16.60;99.90;;;;;;5076405;28;20187;-69
2022/06/15 05:42:09;;;;;;;4.32;3.20;;;16.60;99.90;;;;;;5077064;28;20212;-69
2022/06/15 05:44:48;;;;;;;5.10;3.50;;;16.60;99.90;;;;;;5076710;28;20175;-70
2022/06/15 05:47:14;;;;;;;4.97;3.30;;;16.60;99.90;;;;;;5076933;28;20195;-68
2022/06/15 05:49:40;;;;;;;4.32;3.05;;;16.70;99.90;;;;;;5077070;28;20189;-69
2022/06/15 05:52:06;;;;;;;4.25;2.88;;;16.70;99.90;;;;;;5073610;28;20165;-69
2022/06/15 05:54:32;;;;;;;3.13;2.63;;;16.80;99.90;;;;;;5057274;28;20227;-69
2022/06/15 05:56:58;;;;;;;4.65;2.80;;;16.90;99.90;;;;;;5075829;28;20202;-70
2022/06/15 05:59:23;;;;;;;5.65;3.00;;;16.90;99.90;;;;;;5072499;28;20184;-69
2022/06/15 06:01:49;;;;;;;3.58;2.60;;;17.00;99.90;;;;;;5056880;28;20177;-69
2022/06/15 06:04:17;;;;;;;4.18;2.47;;;17.10;99.90;;;;;;5068433;28;20238;-69
2022/06/15 06:06:45;;;;;;;4.00;2.65;;;17.10;99.90;;;;;;5076849;28;20410;-69
2022/06/15 06:09:11;;;;;;;3.60;2.47;;;17.20;99.90;;;;;;5076471;28;20216;-70
2022/06/15 06:11:38;;;;;;;4.38;2.25;;;17.30;99.90;;;;;;5075298;28;20208;-69
2022/06/15 06:14:04;;;;;;;3.53;2.67;;;17.30;99.90;;;;;;5076482;28;20177;-70
2022/06/15 06:16:29;;;;;;;4.65;2.58;;;17.40;99.90;;;;;;5075048;28;20176;-70
2022/06/15 06:18:55;;;;;;;5.25;2.47;;;17.40;99.90;;;;;;5075789;28;20275;-69
2022/06/15 06:21:23;;;;;;;3.78;2.50;;;17.40;99.90;;;;;;5076824;28;20173;-70
2022/06/15 06:23:49;;;;;;;3.83;2.50;;;17.50;99.90;;;;;;5064683;28;20203;-69
2022/06/15 06:26:36;;;;;;;4.00;2.50;;;17.50;99.90;;;;;;5068238;28;20176;-70
2022/06/15 06:29:02;;;;;;;3.75;2.20;;;17.60;99.90;;;;;;5072919;28;20178;-71
2022/06/15 06:31:29;;;;;;;3.53;2.30;;;17.70;99.90;;;;;;5074914;28;20333;-69
2022/06/15 06:33:58;;;;;;;3.13;2.30;;;17.80;99.90;;;;;;5076510;28;20173;-69
2022/06/15 06:36:57;;;;;;;4.25;2.55;;;17.80;99.90;;;;;;5068809;28;20250;-69
2022/06/15 06:39:28;;;;;;;2.88;2.03;;;17.90;99.90;;;;;;5045566;28;20205;-69
2022/06/15 06:41:55;;;;;;;3.33;2.30;;;18.00;99.90;;;;;;5072274;28;20217;-70
2022/06/15 06:44:25;;;;;;;3.25;2.00;;;18.10;99.90;;;;;;5057068;28;20192;-70
2022/06/15 06:46:55;;;;;;;4.43;1.80;;;18.10;99.90;;;;;;5056543;28;20255;-69
2022/06/15 06:49:26;;;;;;;3.60;2.22;;;18.20;99.90;;;;;;5057041;28;20200;-70
2022/06/15 06:51:52;;;;;;;2.80;2.17;;;18.30;99.90;;;;;;5072929;28;20173;-70
2022/06/15 06:54:22;;;;;;;4.25;2.47;;;18.40;99.90;;;;;;5075666;28;20269;-69
2022/06/15 06:56:52;;;;;;;3.47;2.30;;;18.40;99.90;;;;;;5075961;28;20172;-69
2022/06/15 06:59:18;;;;;;;3.63;2.22;;;18.50;99.90;;;;;;5083198;28;20201;-69
2022/06/15 07:01:45;;;;;;;11.13;2.72;;;18.60;99.90;;;;;;5057212;28;20211;-68
2022/06/15 07:04:12;;;;;;;2.65;2.10;;;18.60;99.90;;;;;;5075731;28;20185;-69
2022/06/15 07:06:40;;;;;;;2.30;2.00;;;18.70;99.90;;;;;;5075266;28;20183;-69
2022/06/15 07:09:06;;;;;;;2.35;1.75;;;18.80;99.90;;;;;;5076011;28;20173;-70
2022/06/15 07:11:32;;;;;;;2.92;1.95;;;18.80;99.90;;;;;;5071763;28;20269;-70
2022/06/15 07:14:01;;;;;;;3.85;2.08;;;18.90;99.90;;;;;;5075534;28;20169;-70
2022/06/15 07:16:27;;;;;;;2.97;2.17;;;18.90;99.90;;;;;;5061480;28;20443;-69
2022/06/15 07:18:56;;;;;;;3.42;1.73;;;19.00;99.90;;;;;;5058387;28;20192;-70
2022/06/15 07:21:24;;;;;;;3.10;1.77;;;19.10;99.90;;;;;;5092475;28;20191;-70
2022/06/15 07:23:55;;;;;;;3.97;2.22;;;19.20;99.90;;;;;;5094321;28;20278;-70
2022/06/15 07:26:25;;;;;;;3.10;2.08;;;19.20;99.90;;;;;;5076500;28;20237;-70
2022/06/15 07:28:51;;;;;;;3.95;1.80;;;19.30;99.90;;;;;;5073741;28;20269;-70
2022/06/15 07:31:30;;;;;;;3.05;1.75;;;19.30;99.90;;;;;;5075514;28;20177;-69
2022/06/15 07:33:59;;;;;;;3.65;1.70;;;19.40;99.90;;;;;;5071948;28;20166;-70
2022/06/15 07:36:27;;;;;;;4.25;1.70;;;19.50;99.90;;;;;;5075435;28;20183;-69
2022/06/15 07:38:59;;;;;;;2.13;1.70;;;19.50;99.90;;;;;;5071607;28;20174;-70
2022/06/15 07:41:28;;;;;;;4.10;1.85;;;19.60;99.90;;;;;;5074486;28;20193;-69
2022/06/15 07:43:54;;;;;;;3.10;1.60;;;19.70;99.90;;;;;;5075401;28;20207;-70
2022/06/15 07:46:20;;;;;;;3.20;1.70;;;19.80;99.90;;;;;;5071837;28;20280;-70
2022/06/15 07:51:36;;;;;;;2.17;1.40;;;20.00;99.90;;;;;;5058344;28;20164;-69
2022/06/15 07:54:09;;;;;;;2.53;1.50;;;20.10;99.90;;;;;;5056841;28;20180;-68
2022/06/15 07:56:38;;;;;;;4.25;1.90;;;20.20;99.90;;;;;;5071215;28;20164;-69
2022/06/15 07:59:09;;;;;;;3.90;1.52;;;20.30;99.90;;;;;;5079156;28;20238;-69
2022/06/15 08:01:37;;;;;;;3.00;1.80;;;20.40;99.90;;;;;;5072285;28;20177;-69
2022/06/15 08:04:06;;;;;;;2.50;1.67;;;20.40;99.90;;;;;;5074048;28;20220;-69
2022/06/15 08:06:37;;;;;;;2.15;1.35;;;20.50;99.90;;;;;;5066005;28;20234;-70
2022/06/15 08:09:09;;;;;;;2.78;1.52;;;20.60;99.90;;;;;;5063459;28;20180;-69
2022/06/15 08:11:38;;;;;;;2.55;1.40;;;20.70;99.90;;;;;;5074038;28;20182;-68
2022/06/15 08:14:06;;;;;;;3.95;1.58;;;20.80;99.90;;;;;;5074342;28;20266;-69
2022/06/15 08:16:33;;;;;;;3.72;1.58;;;20.90;99.90;;;;;;5068713;28;20208;-69
2022/06/15 08:19:01;;;;;;;2.20;1.40;;;21.00;99.90;;;;;;5063649;28;20337;-69
2022/06/15 08:21:33;;;;;;;2.35;1.42;;;21.00;99.90;;;;;;5054529;28;20678;-69
2022/06/15 08:24:00;;;;;;;2.72;1.38;;;21.10;99.90;;;;;;5074252;28;20180;-69
2022/06/15 08:26:32;;;;;;;3.05;1.30;;;21.20;99.90;;;;;;5074163;28;20191;-69
2022/06/15 08:29:01;;;;;;;2.63;1.25;;;21.30;99.70;;;;;;5061001;28;20173;-69
2022/06/15 08:31:29;;;;;;;1.92;1.52;;;21.40;99.50;;;;;;5071789;28;20173;-69
2022/06/15 08:33:55;;;;;;;1.98;1.40;;;21.50;99.10;;;;;;5073801;28;20219;-69
2022/06/15 08:36:21;;;;;;;2.38;1.30;;;21.50;99.10;;;;;;5073960;28;20313;-69
2022/06/15 08:38:47;;;;;;;2.50;1.30;;;21.60;98.80;;;;;;5073527;28;20261;-69
2022/06/15 08:41:35;;;;;;;2.00;1.30;;;21.70;98.50;;;;;;5073569;28;20185;-70
2022/06/15 08:44:43;;;;;;;2.75;1.30;;;21.80;97.70;;;;;;5073648;28;20268;-70
2022/06/15 08:47:28;;;;;;;1.27;1.00;;;21.90;97.20;;;;;;5061551;28;20241;-69
2022/06/15 08:50:02;;;;;;;1.77;1.23;;;22.00;97.20;;;;;;5072242;28;20164;-69
2022/06/15 08:52:43;;;;;;;6.28;1.40;;;22.00;97.80;;;;;;5071136;28;20183;-68
2022/06/15 08:55:39;;;;;;;1.88;1.30;;;22.20;96.50;;;;;;5070701;28;20172;-69
2022/06/15 08:58:19;;;;;;;2.50;1.20;;;22.20;96.40;;;;;;5073540;28;20197;-69
2022/06/15 09:00:46;;;;;;;3.30;1.20;;;22.30;96.50;;;;;;5071154;28;20196;-69
2022/06/15 09:03:42;;;;;;;1.80;1.20;;;22.50;96.80;;;;;;5069208;28;20201;-69
2022/06/15 09:06:14;;;;;;;2.58;1.17;;;22.50;96.50;;;;;;5069367;28;20176;-69
2022/06/15 09:08:54;;;;;;;4.22;1.30;;;22.60;96.50;;;;;;5066701;28;20281;-69
2022/06/15 09:11:37;;;;;;;3.67;1.33;;;22.70;96.10;;;;;;5080276;28;20208;-69
2022/06/15 09:14:06;;;;;;;3.20;1.30;;;22.80;95.90;;;;;;5062182;28;20206;-70
2022/06/15 09:16:34;;;;;;;1.85;1.30;;;22.80;95.70;;;;;;5077616;28;20172;-69
2022/06/15 09:19:08;;;;;;;2.22;1.40;;;22.90;95.80;;;;;;5077353;28;20189;-70
2022/06/15 09:22:12;;;;;;;2.22;1.08;;;23.00;95.10;;;;;;5069668;28;20169;-70
2022/06/15 09:24:47;;;;;;;2.72;1.30;;;23.00;94.70;;;;;;5057684;28;20181;-69
2022/06/15 09:27:31;;;;;;;1.77;1.23;;;23.10;94.90;;;;;;5073147;28;20245;-69
2022/06/15 09:30:07;;;;;;;3.50;1.30;;;23.10;94.80;;;;;;5071374;28;20236;-68
2022/06/15 09:32:42;;;;;;;2.45;1.27;;;23.30;94.80;;;;;;5075190;28;20196;-70
2022/06/15 09:35:16;;;;;;;2.83;1.35;;;23.30;94.50;;;;;;5083154;28;20471;-69
2022/06/15 09:37:46;;;;;;;2.55;1.40;;;23.40;94.70;;;;;;5059434;28;20233;-69
2022/06/15 09:40:14;;;;;;;2.50;1.23;;;23.50;94.60;;;;;;5070426;28;20192;-70
2022/06/15 09:42:51;;;;;;;2.38;1.20;;;23.60;94.70;;;;;;5077270;28;20219;-70
2022/06/15 09:45:21;;;;;;;1.50;1.15;;;23.70;94.00;;;;;;5077147;28;20182;-69
2022/06/15 09:48:23;;;;;;;2.05;1.13;;;23.80;94.20;;;;;;5069780;28;20201;-69
2022/06/15 09:51:20;;;;;;;2.38;1.10;;;23.90;93.30;;;;;;5057060;28;20179;-69
2022/06/15 09:54:04;;;;;;;1.85;1.15;;;24.00;93.50;;;;;;5076127;28;20189;-70
2022/06/15 09:56:34;;;;;;;4.50;1.60;;;24.10;94.20;;;;;;5076687;28;20161;-70
2022/06/15 09:59:10;;;;;;;1.65;1.30;;;24.20;93.70;;;;;;5076760;28;20188;-70
2022/06/15 10:01:41;;;;;;;1.80;1.13;;;24.30;93.30;;;;;;5066233;28;20193;-69
2022/06/15 10:04:21;;;;;;;1.77;1.23;;;24.30;93.50;;;;;;5057053;28;20197;-69
2022/06/15 10:06:52;;;;;;;3.58;1.30;;;24.50;92.90;;;;;;5056551;28;20204;-70
2022/06/15 10:09:23;;;;;;;3.03;1.20;;;24.50;92.80;;;;;;5068238;28;20172;-69
2022/06/15 10:11:52;;;;;;;2.50;1.02;;;24.70;92.50;;;;;;5076889;28;20157;-69
2022/06/15 10:14:20;;;;;;;1.40;1.10;;;24.80;92.40;;;;;;5060898;28;20207;-69
2022/06/15 10:17:05;;;;;;;2.05;1.33;;;24.90;92.30;;;;;;5076691;28;20168;-69
2022/06/15 10:19:37;;;;;;;2.58;1.40;;;25.00;91.00;;;;;;5069455;28;20233;-69
2022/06/15 10:22:19;;;;;;;2.53;1.33;;;25.10;91.10;;;;;;5073562;28;20173;-69
2022/06/15 10:24:49;;;;;;;2.08;1.40;;;25.20;90.40;;;;;;5076053;28;20200;-69
2022/06/15 10:27:21;;;;;;;3.95;1.30;;;25.30;90.50;;;;;;5076695;28;20265;-69
2022/06/15 10:29:59;;;;;;;2.15;1.10;;;25.50;90.30;;;;;;5092029;28;20257;-71
2022/06/15 10:32:31;;;;;;;2.92;1.05;;;25.60;90.00;;;;;;5075638;28;20260;-70
2022/06/15 10:35:03;;;;;;;2.42;1.20;;;25.70;89.90;;;;;;5076342;28;20240;-69
2022/06/15 10:37:31;;;;;;;1.52;1.10;;;25.80;88.10;;;;;;5076176;28;20185;-70
2022/06/15 10:40:17;;;;;;;2.30;1.17;;;26.00;90.00;;;;;;5076485;28;20173;-70
2022/06/15 10:42:48;;;;;;;1.80;1.20;;;26.20;87.70;;;;;;5070801;28;20215;-71
2022/06/15 10:45:22;;;;;;;1.70;1.10;;;26.40;85.40;;;;;;5081525;28;20236;-71
2022/06/15 10:48:08;;;;;;;3.45;1.20;;;26.60;85.90;;;;;;5075896;28;20265;-70
2022/06/15 10:50:46;;;;;;;1.20;1.00;;;26.80;86.40;;;;;;5062214;28;20178;-71
2022/06/15 10:53:30;;;;;;;1.90;1.20;;;27.10;86.80;;;;;;5070372;28;20197;-70
2022/06/15 11:02:09;;;;;;;2.53;1.30;;;27.80;85.40;;;;;;5079025;28;20237;-70
2022/06/15 11:04:57;;;;;;;1.90;1.02;;;28.10;84.60;;;;;;5075978;28;20161;-70
2022/06/15 11:07:25;;;;;;;2.00;1.10;;;28.40;81.90;;;;;;5075945;28;20284;-71
2022/06/15 11:09:54;;;;;;;2.45;1.33;;;28.60;84.80;;;;;;5089671;28;20176;-70
2022/06/15 11:12:25;;;;;;;2.53;1.30;;;28.70;80.30;;;;;;5060743;28;20259;-71
2022/06/15 11:14:59;;;;;;;1.27;1.00;;;28.90;79.70;;;;;;5092504;28;20196;-71
2022/06/15 11:20:43;;;;;;;1.45;1.08;;;29.30;74.50;;;;;;5075756;28;20182;-70
2022/06/15 11:23:23;;;;;;;2.00;1.30;;;29.50;77.90;;;;;;5080572;28;20196;-70
2022/06/15 11:26:00;;;;;;;2.10;1.30;;;29.60;74.10;;;;;;5071543;28;20180;-71
2022/06/15 11:28:37;;;;;;;1.92;1.20;;;29.80;74.00;;;;;;5055410;28;20212;-71
2022/06/15 11:31:14;;;;;;;1.98;1.00;;;29.90;73.60;;;;;;5068781;28;20187;-71
2022/06/15 11:34:14;;;;;;;1.98;1.30;;;30.10;74.00;;;;;;5072567;28;20202;-72
2022/06/15 11:36:48;;;;;;;3.55;1.40;;;30.30;72.90;;;;;;5045147;28;20184;-71
2022/06/15 11:39:20;;;;;;;2.25;1.20;;;30.40;72.00;;;;;;5074356;28;20324;-70
2022/06/15 11:41:51;;;;;;;1.95;1.30;;;30.50;70.00;;;;;;5069695;28;20245;-71
2022/06/15 11:44:30;;;;;;;2.22;1.17;;;30.60;65.10;;;;;;5058831;28;20210;-71
2022/06/15 11:47:05;;;;;;;1.40;1.00;;;30.70;63.50;;;;;;5067531;28;20204;-71
2022/06/15 11:50:07;;;;;;;3.03;1.23;;;30.80;62.90;;;;;;5074877;28;20270;-69
2022/06/15 11:53:00;;;;;;;1.17;1.05;;;30.90;63.40;;;;;;5071196;28;20207;-69
2022/06/15 11:55:40;;;;;;;2.50;1.20;;;31.00;64.20;;;;;;5079873;28;20176;-69
2022/06/15 11:58:34;;;;;;;1.77;1.17;;;31.10;59.90;;;;;;5073030;28;20222;-69
2022/06/15 12:01:22;;;;;;;2.33;1.20;;;31.20;63.20;;;;;;5062213;28;20225;-69
2022/06/15 12:04:09;;;;;;;1.50;1.10;;;31.40;62.00;;;;;;5075065;28;20203;-69
2022/06/15 12:06:55;;;;;;;2.22;1.30;;;31.50;62.80;;;;;;5071939;28;20187;-69
2022/06/15 12:09:49;;;;;;;1.83;1.00;;;31.70;60.30;;;;;;5066265;28;20287;-70
2022/06/15 12:12:42;;;;;;;2.22;1.20;;;31.80;60.30;;;;;;5070146;28;20172;-69
2022/06/15 12:15:31;;;;;;;1.70;1.17;;;31.90;60.40;;;;;;5054836;28;20268;-69
2022/06/15 12:18:21;;;;;;;1.90;1.10;;;32.10;58.60;;;;;;5063924;28;20171;-69
2022/06/15 12:21:14;;;;;;;2.20;1.23;;;32.20;58.70;;;;;;5054731;28;20185;-70
2022/06/15 12:24:01;;;;;;;2.40;1.50;;;32.30;58.10;;;;;;5072708;28;20174;-70
2022/06/15 12:26:41;;;;;;;2.28;1.50;;;32.50;57.70;;;;;;5073688;28;20255;-69
2022/06/15 12:29:16;;;;;;;4.78;1.30;;;32.60;57.80;;;;;;5055608;28;20183;-69
2022/06/15 12:32:16;;;;;;;2.97;1.25;;;32.70;57.20;;;;;;5073836;28;20172;-70
2022/06/15 12:34:59;;;;;;;1.52;1.40;;;32.80;55.50;;;;;;5063429;28;20261;-77
2022/06/15 12:37:34;;;;;;;9.35;7.20;;;32.90;55.80;;;;;;5055509;28;20184;-82
2022/06/15 12:40:18;;;;;;;8.65;6.50;;;33.00;56.30;;;;;;5069950;28;20210;-82
2022/06/15 12:42:51;;;;;;;4.30;3.38;;;33.10;54.50;;;;;;5072349;28;20210;-81
2022/06/15 12:45:16;;;;;;;3.47;2.20;;;33.00;55.40;;;;;;5072137;28;20200;-79
2022/06/15 12:47:50;;;;;;;2.38;1.88;;;33.00;55.60;;;;;;5073168;28;20230;-82
2022/06/15 12:50:40;;;;;;;1.73;1.20;;;33.10;54.20;;;;;;5073006;28;20191;-82
2022/06/15 12:53:29;;;;;;;2.08;1.40;;;33.20;53.10;;;;;;5074339;28;20172;-82
2022/06/15 12:56:16;;;;;;;1.55;1.10;;;33.20;52.40;;;;;;5074248;28;20453;-81
2022/06/15 12:59:04;;;;;;;1.98;1.20;;;33.20;51.70;;;;;;5065422;28;20172;-78
2022/06/15 13:01:43;;;;;;;1.95;1.20;;;33.20;51.20;;;;;;5072354;28;20216;-80
2022/06/15 13:04:31;;;;;;;2.10;1.40;;;33.30;51.20;;;;;;5074125;28;20179;-80
2022/06/15 13:07:21;;;;;;;2.17;1.40;;;33.30;51.40;;;;;;5078443;28;20196;-80
2022/06/15 13:10:07;;;;;;;3.08;1.20;;;33.30;50.60;;;;;;5074225;28;20206;-82
2022/06/15 13:12:45;;;;;;;1.33;1.05;;;33.40;50.80;;;;;;5082094;28;20462;-79
2022/06/15 13:15:31;;;;;;;2.63;1.15;;;33.40;51.80;;;;;;5073976;28;20207;-82
2022/06/15 13:18:09;;;;;;;2.35;1.50;;;33.50;50.90;;;;;;5074080;28;20270;-82
2022/06/15 13:20:49;;;;;;;2.28;1.13;;;33.60;51.50;;;;;;5073685;28;20203;-80
2022/06/15 13:23:24;;;;;;;3.10;1.20;;;33.70;48.90;;;;;;5073300;28;20218;-81
2022/06/15 13:25:54;;;;;;;1.77;1.10;;;33.80;49.10;;;;;;5072926;28;20294;-82
2022/06/15 13:28:24;;;;;;;1.33;0.93;;;33.90;49.90;;;;;;5074082;28;20255;-76
2022/06/15 13:30:53;;;;;;;3.35;1.00;;;33.90;48.80;;;;;;5069247;28;20270;-81
2022/06/15 13:33:39;;;;;;;1.63;1.20;;;34.00;47.50;;;;;;5070463;28;20177;-81
2022/06/15 13:36:11;;;;;;;1.23;1.00;;;33.90;46.80;;;;;;5066703;28;20180;-81